ON7KGK Weather Reports


time (UTC)temp
C
wind
direction
speed
KPH
gust
KPH
rain 1hr
cm
rain 24hr
cm
rain mn
cm
humidity
%
barometer
mb
20190420221032 12 34 17.7 40.2 0.00 0.00 0.00 65 1023.8
20190420220531 12 22 12.9 25.7 0.00 0.00 0.00 66 1023.9
20190420220030 12 28 11.3 16.1 0.00 0.00 0.00 67 1023.9
20190420215531 12 28 9.7 16.1 0.00 0.00 0.00 67 1023.9
20190420215031 12 28 6.4 14.5 0.00 0.00 0.00 67 1023.9
20190420214529 12 28 4.8 8.0 0.00 0.00 0.00 65 1023.9
20190420214030 13 28 6.4 9.7 0.00 0.00 0.00 63 1023.9
20190420213530 13 28 6.4 9.7 0.00 0.00 0.00 63 1023.8
20190420213031 13 28 8.0 12.9 0.00 0.00 0.00 65 1023.9
20190420212532 12 28 9.7 12.9 0.00 0.00 0.00 66 1023.9
20190420212031 12 28 9.7 12.9 0.00 0.00 0.00 67 1024.0
20190420211530 12 28 8.0 12.9 0.00 0.00 0.00 67 1024.0
20190420211030 13 28 3.2 9.7 0.00 0.00 0.00 65 1024.0
20190420210529 13 28 1.6 6.4 0.00 0.00 0.00 64 1024.0
20190420210031 13 28 1.6 6.4 0.00 0.00 0.00 65 1024.0
20190420205530 13 28 3.2 9.7 0.00 0.00 0.00 64 1024.0
20190420205029 13 28 3.2 9.7 0.00 0.00 0.00 62 1024.0
20190420204529 14 28 1.6 9.7 0.00 0.00 0.00 62 1024.0
20190420204030 14 28 0.0 8.0 0.00 0.00 0.00 61 1024.0
20190420203531 14 28 0.0 8.0 0.00 0.00 0.00 61 1024.0
20190420203029 13 28 1.6 8.0 0.00 0.00 0.00 63 1024.0
20190420202530 13 28 4.8 8.0 0.00 0.00 0.00 64 1024.0
20190420202030 13 28 4.8 14.5 0.00 0.00 0.00 65 1024.0
20190420201529 13 28 6.4 14.5 0.00 0.00 0.00 63 1024.0
20190420201032 14 28 9.7 17.7 0.00 0.00 0.00 62 1024.0
20190420200530 15 28 8.0 17.7 0.00 0.00 0.00 60 1024.0
20190420200030 15 42 1.6 14.5 0.00 0.00 0.00 61 1023.9
20190420195531 15 53 0.0 3.2 0.00 0.00 0.00 63 1023.9
20190420195031 15 53 3.2 8.0 0.00 0.00 0.00 61 1024.0
20190420194530 16 53 6.4 8.0 0.00 0.00 0.00 56 1023.9
20190420194029 16 53 4.8 8.0 0.00 0.00 0.00 54 1023.9
20190420193531 16 53 3.2 8.0 0.00 0.00 0.00 56 1023.9
20190420193029 16 53 3.2 6.4 0.00 0.00 0.00 57 1023.8
20190420192529 16 53 4.8 8.0 0.00 0.00 0.00 55 1023.8
20190420192031 17 53 6.4 9.7 0.00 0.00 0.00 52 1023.8
20190420191532 17 53 8.0 9.7 0.00 0.00 0.00 52 1023.8
20190420191030 17 53 8.0 9.7 0.00 0.00 0.00 51 1023.8
20190420190530 17 53 8.0 11.3 0.00 0.00 0.00 51 1023.8
20190420190032 17 53 9.7 14.5 0.00 0.00 0.00 50 1023.7
20190420185530 17 53 11.3 14.5 0.00 0.00 0.00 50 1023.7
20190420185029 17 53 9.7 14.5 0.00 0.00 0.00 50 1023.7
20190420184529 17 53 9.7 14.5 0.00 0.00 0.00 51 1023.7
20190420184030 17 53 12.9 17.7 0.00 0.00 0.00 53 1023.7
20190420183530 17 53 14.5 17.7 0.00 0.00 0.00 52 1023.7
20190420183030 18 53 14.5 17.7 0.00 0.00 0.00 50 1023.7
20190420182529 18 53 16.1 22.5 0.00 0.00 0.00 50 1023.7
20190420182027 18 53 16.1 22.5 0.00 0.00 0.00 49 1023.7
20190420181530 18 57 16.1 20.9 0.00 0.00 0.00 48 1023.7
20190420181028 19 52 17.7 24.1 0.00 0.00 0.00 47 1023.7
20190420180525 19 50 17.7 24.1 0.00 0.00 0.00 47 1023.7
20190420180025 20 52 17.7 24.1 0.00 0.00 0.00 46 1023.7
20190420175522 20 43 17.7 24.1 0.00 0.00 0.00 46 1023.7
20190420175022 20 49 19.3 27.4 0.00 0.00 0.00 46 1023.7
20190420174522 20 51 20.9 29.0 0.00 0.00 0.00 44 1023.7
20190420174020 20 45 20.9 29.0 0.00 0.00 0.00 44 1023.7
20190420173521 20 52 20.9 29.0 0.00 0.00 0.00 42 1023.7
20190420173020 21 49 22.5 37.0 0.00 0.00 0.00 42 1023.7
20190420172521 21 53 24.1 37.0 0.00 0.00 0.00 41 1023.8
20190420172015 21 51 27.4 37.0 0.00 0.00 0.00 39 1023.8
20190420171516 21 56 29.0 37.0 0.00 0.00 0.00 40 1023.9
20190420171015 21 55 27.4 35.4 0.00 0.00 0.00 41 1023.9
20190420170511 21 37 30.6 43.5 0.00 0.00 0.00 40 1023.9
20190420170011 21 54 32.2 43.5 0.00 0.00 0.00 40 1024.0
20190420165511 21 59 29.0 43.5 0.00 0.00 0.00 40 1024.0
20190420165011 21 66 25.7 37.0 0.00 0.00 0.00 41 1024.0
20190420164510 22 48 27.4 40.2 0.00 0.00 0.00 40 1024.1
20190420164008 22 40 29.0 40.2 0.00 0.00 0.00 39 1024.1
20190420163509 22 51 29.0 43.5 0.00 0.00 0.00 40 1024.2
20190420163008 22 53 30.6 46.7 0.00 0.00 0.00 39 1024.2
20190420162506 22 55 33.8 49.9 0.00 0.00 0.00 37 1024.2
20190420162010 22 53 35.4 53.1 0.00 0.00 0.00 36 1024.3
20190420161507 22 53 35.4 53.1 0.00 0.00 0.00 38 1024.4
20190420161007 22 48 33.8 51.5 0.00 0.00 0.00 38 1024.4
20190420160504 22 46 35.4 49.9 0.00 0.00 0.00 37 1024.4
20190420160003 23 53 37.0 49.9 0.00 0.00 0.00 37 1024.4
20190420155502 23 36 29.0 46.7 0.00 0.00 0.00 36 1024.5
20190420155001 23 54 24.1 45.1 0.00 0.00 0.00 38 1024.5
20190420154500 23 31 29.0 45.1 0.00 0.00 0.00 36 1024.5
20190420154000 23 38 30.6 45.1 0.00 0.00 0.00 38 1024.6
20190420153458 23 45 29.0 45.1 0.00 0.00 0.00 41 1024.6
20190420152957 23 55 30.6 49.9 0.00 0.00 0.00 37 1024.6
20190420152454 23 38 30.6 49.9 0.00 0.00 0.00 39 1024.6
20190420151954 23 36 29.0 41.8 0.00 0.00 0.00 38 1024.7
20190420151453 23 53 29.0 38.6 0.00 0.00 0.00 41 1024.7
20190420150953 23 38 30.6 41.8 0.00 0.00 0.00 39 1024.8
20190420150449 23 45 32.2 48.3 0.00 0.00 0.00 40 1024.8
20190420145948 23 26 27.4 48.3 0.00 0.00 0.00 36 1024.8
20190420145448 23 38 24.1 38.6 0.00 0.00 0.00 41 1024.9
20190420144948 23 339 20.9 38.6 0.00 0.00 0.00 42 1024.9
20190420144448 23 17 22.5 38.6 0.00 0.00 0.00 39 1025.0
20190420143947 23 44 27.4 49.9 0.00 0.00 0.00 40 1025.0
20190420143448 23 49 24.1 49.9 0.00 0.00 0.00 40 1025.1
20190420142946 23 36 22.5 33.8 0.00 0.00 0.00 38 1025.1
20190420142445 23 52 25.7 48.3 0.00 0.00 0.00 42 1025.2
20190420141943 23 49 29.0 48.3 0.00 0.00 0.00 42 1025.3
20190420141443 23 63 30.6 46.7 0.00 0.00 0.00 42 1025.3
20190420140941 23 47 32.2 48.3 0.00 0.00 0.00 40 1025.3
20190420140439 23 69 29.0 48.3 0.00 0.00 0.00 42 1025.4
20190420140043 23 65 27.4 46.7 0.00 0.00 0.00 44 1025.4
20190420135438 23 22 27.4 46.7 0.00 0.00 0.00 42 1025.4
20190420134936 23 70 29.0 51.5 0.00 0.00 0.00 44 1025.5
20190420134436 23 38 33.8 51.5 0.00 0.00 0.00 42 1025.6
20190420133936 23 72 32.2 51.5 0.00 0.00 0.00 43 1025.6
20190420133436 23 42 30.6 51.5 0.00 0.00 0.00 40 1025.7
20190420132936 23 53 35.4 53.1 0.00 0.00 0.00 41 1025.7
20190420132434 23 57 37.0 53.1 0.00 0.00 0.00 41 1025.8
20190420131933 23 0 30.6 48.3 0.00 0.00 0.00 42 1025.8
20190420131434 23 47 29.0 48.3 0.00 0.00 0.00 41 1025.9
20190420130933 23 38 30.6 49.9 0.00 0.00 0.00 42 1026.0
20190420130430 23 29 33.8 56.3 0.00 0.00 0.00 43 1026.0
20190420125929 23 38 30.6 56.3 0.00 0.00 0.00 42 1026.0
20190420125429 23 34 24.1 46.7 0.00 0.00 0.00 43 1026.1
20190420124927 23 40 24.1 40.2 0.00 0.00 0.00 42 1026.1
20190420124425 23 105 24.1 38.6 0.00 0.00 0.00 43 1026.2
20190420123925 23 38 25.7 41.8 0.00 0.00 0.00 39 1026.2
20190420123426 23 67 30.6 46.7 0.00 0.00 0.00 43 1026.2
20190420122924 23 27 29.0 48.3 0.00 0.00 0.00 43 1026.2
20190420122419 23 13 29.0 48.3 0.00 0.00 0.00 44 1026.2
20190420121921 23 38 33.8 48.3 0.00 0.00 0.00 42 1026.3
20190420121417 23 52 33.8 48.3 0.00 0.00 0.00 44 1026.3
20190420120918 23 30 29.0 48.3 0.00 0.00 0.00 43 1026.3
20190420120418 23 28 27.4 48.3 0.00 0.00 0.00 44 1026.3
20190420115918 23 13 30.6 43.5 0.00 0.00 0.00 45 1026.4
20190420115416 23 67 27.4 51.5 0.00 0.00 0.00 43 1026.6
20190420114916 23 22 17.7 51.5 0.00 0.00 0.00 46 1026.6
20190420114414 23 23 17.7 40.2 0.00 0.00 0.00 41 1026.7
20190420113912 23 15 22.5 43.5 0.00 0.00 0.00 44 1026.7
20190420113414 23 49 29.0 46.7 0.00 0.00 0.00 45 1026.8
20190420112911 23 59 29.0 48.3 0.00 0.00 0.00 44 1026.9
20190420112411 23 30 27.4 48.3 0.00 0.00 0.00 46 1026.9
20190420111910 23 21 29.0 48.3 0.00 0.00 0.00 43 1027.0
20190420111409 23 21 24.1 48.3 0.00 0.00 0.00 44 1027.0
20190420110910 23 31 20.9 48.3 0.00 0.00 0.00 45 1027.1
20190420110410 23 15 22.5 43.5 0.00 0.00 0.00 44 1027.0
20190420105909 23 22 20.9 41.8 0.00 0.00 0.00 43 1027.0
20190420105407 23 355 20.9 43.5 0.00 0.00 0.00 44 1027.0
20190420104905 23 15 20.9 43.5 0.00 0.00 0.00 44 1027.1
20190420104407 23 38 17.7 38.6 0.00 0.00 0.00 45 1027.1
20190420103906 23 350 19.3 46.7 0.00 0.00 0.00 48 1027.1
20190420103403 22 5 20.9 46.7 0.00 0.00 0.00 43 1027.1
20190420102904 23 28 16.1 43.5 0.00 0.00 0.00 45 1027.1
20190420102402 23 344 16.1 32.2 0.00 0.00 0.00 47 1027.1
20190420101902 22 350 17.7 32.2 0.00 0.00 0.00 46 1027.1
20190420101402 22 30 14.5 30.6 0.00 0.00 0.00 48 1027.1
20190420100902 22 26 11.3 35.4 0.00 0.00 0.00 44 1027.2
20190420100401 22 333 11.3 35.4 0.00 0.00 0.00 44 1027.1
20190420095902 22 355 16.1 35.4 0.00 0.00 0.00 47 1027.2
20190420095402 22 12 19.3 33.8 0.00 0.00 0.00 47 1027.2
20190420094859 22 25 19.3 33.8 0.00 0.00 0.00 52 1027.3
20190420094358 21 348 17.7 33.8 0.00 0.00 0.00 48 1027.3
20190420093858 21 35 19.3 37.0 0.00 0.00 0.00 52 1027.3
20190420093357 21 25 19.3 37.0 0.00 0.00 0.00 49 1027.3
20190420092859 21 14 17.7 29.0 0.00 0.00 0.00 52 1027.3
20190420092359 21 35 16.1 29.0 0.00 0.00 0.00 52 1027.4
20190420091359 20 34 16.1 24.1 0.00 0.00 0.00 51 1027.5
20190420090854 20 15 12.9 24.1 0.00 0.00 0.00 52 1027.5
20190420090354 20 30 11.3 20.9 0.00 0.00 0.00 52 1027.5
20190420085852 20 45 14.5 22.5 0.00 0.00 0.00 52 1027.5
20190420085351 20 24 16.1 24.1 0.00 0.00 0.00 53 1027.5
20190420084852 19 30 17.7 24.1 0.00 0.00 0.00 55 1027.6
20190420084351 19 16 19.3 30.6 0.00 0.00 0.00 54 1027.6
20190420083850 19 51 19.3 30.6 0.00 0.00 0.00 56 1027.6
20190420083352 18 30 14.5 27.4 0.00 0.00 0.00 59 1027.6
20190420082851 18 19 12.9 20.9 0.00 0.00 0.00 59 1027.6
20190420082352 18 34 14.5 20.9 0.00 0.00 0.00 59 1027.5
20190420081854 18 41 12.9 20.9 0.00 0.00 0.00 61 1027.5
20190420081350 18 35 12.9 20.9 0.00 0.00 0.00 60 1027.6
20190420080852 17 57 14.5 22.5 0.00 0.00 0.00 59 1027.5
20190420080351 17 50 16.1 22.5 0.00 0.00 0.00 59 1027.6
20190420075849 17 24 14.5 20.9 0.00 0.00 0.00 63 1027.7
20190420075349 17 32 12.9 20.9 0.00 0.00 0.00 63 1027.6
20190420074849 17 32 8.0 17.7 0.00 0.00 0.00 63 1027.6
20190420074352 16 28 6.4 14.5 0.00 0.00 0.00 61 1027.6
20190420073849 16 28 8.0 14.5 0.00 0.00 0.00 63 1027.6
20190420073347 16 28 8.0 14.5 0.00 0.00 0.00 65 1027.6
20190420072847 16 28 8.0 17.7 0.00 0.00 0.00 65 1027.6
20190420072347 16 28 9.7 17.7 0.00 0.00 0.00 65 1027.6
20190420071846 15 46 6.4 16.1 0.00 0.00 0.00 65 1027.6
20190420071345 15 49 1.6 14.5 0.00 0.00 0.00 69 1027.6
20190420070845 14 53 0.0 8.0 0.00 0.00 0.00 69 1027.5
20190420070346 14 53 1.6 8.0 0.00 0.00 0.00 68 1027.5
20190420065845 14 53 3.2 9.7 0.00 0.00 0.00 68 1027.5
20190420065347 13 53 1.6 9.7 0.00 0.00 0.00 71 1027.5
20190420064846 12 53 0.0 6.4 0.00 0.00 0.00 75 1027.5
20190420064346 12 53 0.0 6.4 0.00 0.00 0.00 77 1027.5
20190420063847 12 53 0.0 6.4 0.00 0.00 0.00 77 1027.5
20190420063345 11 53 1.6 6.4 0.00 0.00 0.00 77 1027.4
20190420062845 11 53 0.0 6.4 0.00 0.00 0.00 77 1027.4
20190420062346 11 53 0.0 6.4 0.00 0.00 0.00 81 1027.4
20190420061848 10 53 0.0 6.4 0.00 0.00 0.00 80 1027.3
20190420061345 10 53 0.0 6.4 0.00 0.00 0.00 79 1027.3
20190420060847 10 53 0.0 6.4 0.00 0.00 0.00 79 1027.2
20190420060346 9 53 3.2 8.0 0.00 0.00 0.00 78 1027.2
20190420055845 10 53 3.2 9.7 0.00 0.00 0.00 75 1027.2
20190420055346 10 53 1.6 9.7 0.00 0.00 0.00 77 1027.2
20190420054845 9 53 0.0 0.0 0.00 0.00 0.00 80 1027.2
20190420054347 9 53 1.6 6.4 0.00 0.00 0.00 82 1027.2
20190420053845 8 53 3.2 9.7 0.00 0.00 0.00 80 1027.1
20190420053347 8 53 1.6 9.7 0.00 0.00 0.00 82 1027.2
20190420052845 8 53 0.0 0.0 0.00 0.00 0.00 82 1027.1
20190420052346 8 53 0.0 0.0 0.00 0.00 0.00 81 1027.0
20190420051845 8 53 0.0 0.0 0.00 0.00 0.00 80 1027.0
20190420051345 8 53 0.0 6.4 0.00 0.00 0.00 79 1026.9
20190420050845 8 53 0.0 6.4 0.00 0.00 0.00 80 1026.9
20190420050345 8 53 1.6 6.4 0.00 0.00 0.00 81 1026.9
20190420045845 7 53 3.2 9.7 0.00 0.00 0.00 80 1026.8
20190420045344 8 53 3.2 9.7 0.00 0.00 0.00 79 1026.8
20190420044846 8 53 3.2 8.0 0.00 0.00 0.00 75 1026.7
20190420044345 9 53 4.8 9.7 0.00 0.00 0.00 75 1026.7
20190420043845 8 53 6.4 9.7 0.00 0.00 0.00 76 1026.6
20190420043345 8 53 4.8 9.7 0.00 0.00 0.00 76 1026.6
20190420042845 8 53 3.2 6.4 0.00 0.00 0.00 76 1026.6
20190420042345 9 53 3.2 9.7 0.00 0.00 0.00 74 1026.6
20190420041846 9 53 3.2 9.7 0.00 0.00 0.00 74 1026.6
20190420041346 9 53 1.6 6.4 0.00 0.00 0.00 74 1026.4
20190420040848 9 53 3.2 6.4 0.00 0.00 0.00 74 1026.6
20190420040348 10 53 3.2 6.4 0.00 0.00 0.00 72 1026.4
20190420035845 10 53 4.8 8.0 0.00 0.00 0.00 72 1026.6
20190420035345 9 53 4.8 8.0 0.00 0.00 0.00 74 1026.6
20190420034845 10 53 4.8 9.7 0.00 0.00 0.00 72 1026.6
20190420034345 10 53 6.4 9.7 0.00 0.00 0.00 73 1026.6
20190420033845 10 53 6.4 9.7 0.00 0.00 0.00 72 1026.7
20190420033345 10 53 8.0 11.3 0.00 0.00 0.00 72 1026.7
20190420032846 10 53 8.0 14.5 0.00 0.00 0.00 74 1026.7
20190420032346 10 53 4.8 14.5 0.00 0.00 0.00 72 1026.7
20190420031845 10 53 3.2 9.7 0.00 0.00 0.00 72 1026.7
20190420031346 10 53 8.0 17.7 0.00 0.00 0.00 73 1026.7
20190420030845 10 53 11.3 17.7 0.00 0.00 0.00 74 1026.7
20190420030346 10 53 11.3 16.1 0.00 0.00 0.00 75 1026.7
20190420025848 9 53 11.3 17.7 0.00 0.00 0.00 76 1026.8
20190420025347 9 53 9.7 17.7 0.00 0.00 0.00 76 1026.7
20190420024846 9 53 8.0 11.3 0.00 0.00 0.00 74 1026.7
20190420024346 10 53 8.0 11.3 0.00 0.00 0.00 73 1026.6
20190420023846 10 53 9.7 14.5 0.00 0.00 0.00 73 1026.6
20190420023345 10 53 8.0 14.5 0.00 0.00 0.00 73 1026.6
20190420022847 10 53 3.2 11.3 0.00 0.00 0.00 73 1026.6
20190420022347 10 53 0.0 8.0 0.00 0.00 0.00 73 1026.6
20190420021845 10 53 1.6 6.4 0.00 0.00 0.00 72 1026.6
20190420021345 10 53 4.8 8.0 0.00 0.00 0.00 70 1026.6
20190420020846 11 53 6.4 9.7 0.00 0.00 0.00 69 1026.6
20190420020347 11 53 6.4 9.7 0.00 0.00 0.00 69 1026.6
20190420015846 11 53 8.0 9.7 0.00 0.00 0.00 69 1026.6
20190420015345 11 53 9.7 14.5 0.00 0.00 0.00 69 1026.6
20190420014846 11 53 8.0 14.5 0.00 0.00 0.00 68 1026.6
20190420014345 11 53 8.0 9.7 0.00 0.00 0.00 68 1026.4
20190420013845 11 53 9.7 11.3 0.00 0.00 0.00 68 1026.6
20190420013345 11 53 9.7 11.3 0.00 0.00 0.00 70 1026.6
20190420012847 11 53 9.7 11.3 0.00 0.00 0.00 69 1026.4
20190420012348 11 53 9.7 14.5 0.00 0.00 0.00 70 1026.4
20190420011845 11 53 9.7 14.5 0.00 0.00 0.00 69 1026.4
20190420011345 11 53 8.0 14.5 0.00 0.00 0.00 69 1026.4
20190420010844 11 53 8.0 11.3 0.00 0.00 0.00 69 1026.4
20190420010343 11 53 8.0 11.3 0.00 0.00 0.00 68 1026.4
20190420005843 11 53 9.7 11.3 0.00 0.00 0.00 68 1026.4
20190420005343 11 53 8.0 11.3 0.00 0.00 0.00 68 1026.3
20190420004844 11 53 8.0 14.5 0.00 0.00 0.00 67 1026.4
20190420004343 11 53 9.7 16.1 0.00 0.00 0.00 68 1026.3
20190420003843 11 53 9.7 16.1 0.00 0.00 0.00 69 1026.3
20190420003343 11 53 9.7 14.5 0.00 0.00 0.00 69 1026.3
20190420002843 11 53 11.3 16.1 0.00 0.00 0.00 69 1026.4
20190420002343 11 53 9.7 16.1 0.00 0.00 0.00 68 1026.3
20190420001843 12 63 6.4 9.7 0.00 0.00 0.00 67 1026.3
20190420001340 12 63 6.4 9.7 0.00 0.00 0.00 67 1026.3
20190420000842 12 63 6.4 14.5 0.00 0.00 0.00 67 1026.4
20190420000342 12 63 11.3 16.1 0.00 0.00 0.00 68 1026.3
20190419235840 12 63 11.3 16.1 0.00 0.00 0.00 67 1026.4
20190419235340 12 63 8.0 16.1 0.00 0.00 0.00 66 1026.4
20190419234841 12 65 6.4 14.5 0.00 0.00 0.00 66 1026.4
20190419234337 12 65 8.0 14.5 0.00 0.00 0.00 67 1026.4
20190419233839 12 62 9.7 16.1 0.00 0.00 0.00 68 1026.6
20190419233338 12 62 11.3 17.7 0.00 0.00 0.00 68 1026.4
20190419232837 12 53 9.7 17.7 0.00 0.00 0.00 68 1026.4
20190419232339 12 51 9.7 16.1 0.00 0.00 0.00 68 1026.4
20190419231838 12 40 6.4 16.1 0.00 0.00 0.00 67 1026.4
20190419231341 12 34 3.2 16.1 0.00 0.00 0.00 67 1026.4
20190419230840 12 24 0.0 4.8 0.00 0.00 0.00 67 1026.4
20190419230339 12 24 1.6 8.0 0.00 0.00 0.00 68 1026.6
20190419225838 12 24 6.4 14.5 0.00 0.00 0.00 68 1026.4
20190419225338 12 24 8.0 14.5 0.00 0.00 0.00 69 1026.4
20190419224840 12 53 3.2 14.5 0.00 0.00 0.00 69 1026.3
20190419224338 11 54 3.2 14.5 0.00 0.00 0.00 71 1026.3
20190419223839 11 54 11.3 17.7 0.00 0.00 0.00 71 1026.3
20190419223339 12 54 16.1 19.3 0.00 0.00 0.00 69 1026.3
20190419222840 12 46 11.3 19.3 0.00 0.00 0.00 69 1026.3
20190419222338 12 30 3.2 17.7 0.00 0.00 0.00 69 1026.4
20190419221838 12 28 0.0 8.0 0.00 0.00 0.00 71 1026.6
20190419221339 12 28 0.0 4.8 0.00 0.00 0.00 73 1026.4